sensor_id;sensor_type;location;lat;lon;timestamp;P1;durP1;ratioP1;P2;durP2;ratioP2
12511;SDS011;6321;53.798;10.382;2023-03-23T00:01:14;11.50;;;6.80;;
12511;SDS011;6321;53.798;10.382;2023-03-23T00:03:44;10.27;;;6.40;;
12511;SDS011;6321;53.798;10.382;2023-03-23T00:06:10;10.37;;;7.13;;
12511;SDS011;6321;53.798;10.382;2023-03-23T00:08:41;7.33;;;6.53;;
12511;SDS011;6321;53.798;10.382;2023-03-23T00:11:13;11.40;;;7.10;;
12511;SDS011;6321;53.798;10.382;2023-03-23T00:13:40;11.93;;;7.93;;
12511;SDS011;6321;53.798;10.382;2023-03-23T00:16:06;8.30;;;6.50;;
12511;SDS011;6321;53.798;10.382;2023-03-23T00:18:49;9.83;;;7.90;;
12511;SDS011;6321;53.798;10.382;2023-03-23T00:21:21;9.43;;;7.40;;
12511;SDS011;6321;53.798;10.382;2023-03-23T00:23:50;10.20;;;8.00;;
12511;SDS011;6321;53.798;10.382;2023-03-23T00:26:16;10.97;;;7.57;;
12511;SDS011;6321;53.798;10.382;2023-03-23T00:28:42;10.67;;;7.97;;
12511;SDS011;6321;53.798;10.382;2023-03-23T00:31:09;9.03;;;7.30;;
12511;SDS011;6321;53.798;10.382;2023-03-23T00:33:36;12.93;;;8.20;;
12511;SDS011;6321;53.798;10.382;2023-03-23T00:36:08;10.60;;;7.70;;
12511;SDS011;6321;53.798;10.382;2023-03-23T00:38:35;12.30;;;8.57;;
12511;SDS011;6321;53.798;10.382;2023-03-23T00:41:01;12.50;;;7.80;;
12511;SDS011;6321;53.798;10.382;2023-03-23T00:43:30;10.30;;;8.40;;
12511;SDS011;6321;53.798;10.382;2023-03-23T00:45:56;12.90;;;9.77;;
12511;SDS011;6321;53.798;10.382;2023-03-23T00:48:26;11.37;;;9.27;;
12511;SDS011;6321;53.798;10.382;2023-03-23T00:50:52;12.23;;;9.73;;
12511;SDS011;6321;53.798;10.382;2023-03-23T00:53:18;14.03;;;9.50;;
12511;SDS011;6321;53.798;10.382;2023-03-23T00:55:45;13.17;;;9.97;;
12511;SDS011;6321;53.798;10.382;2023-03-23T00:58:11;14.70;;;10.60;;
12511;SDS011;6321;53.798;10.382;2023-03-23T01:00:37;13.70;;;9.97;;
12511;SDS011;6321;53.798;10.382;2023-03-23T01:03:04;14.23;;;9.93;;
12511;SDS011;6321;53.798;10.382;2023-03-23T01:05:33;13.07;;;10.47;;
12511;SDS011;6321;53.798;10.382;2023-03-23T01:07:59;12.20;;;10.00;;
12511;SDS011;6321;53.798;10.382;2023-03-23T01:10:26;11.63;;;9.47;;
12511;SDS011;6321;53.798;10.382;2023-03-23T01:12:53;16.13;;;10.63;;
12511;SDS011;6321;53.798;10.382;2023-03-23T01:15:19;12.20;;;10.90;;
12511;SDS011;6321;53.798;10.382;2023-03-23T01:17:45;14.67;;;11.07;;
12511;SDS011;6321;53.798;10.382;2023-03-23T01:20:12;16.53;;;12.70;;
12511;SDS011;6321;53.798;10.382;2023-03-23T01:22:39;16.10;;;13.03;;
12511;SDS011;6321;53.798;10.382;2023-03-23T01:25:05;16.17;;;14.00;;
12511;SDS011;6321;53.798;10.382;2023-03-23T01:27:32;16.57;;;13.70;;
12511;SDS011;6321;53.798;10.382;2023-03-23T01:29:58;20.97;;;14.47;;
12511;SDS011;6321;53.798;10.382;2023-03-23T01:32:24;18.33;;;13.77;;
12511;SDS011;6321;53.798;10.382;2023-03-23T01:34:50;16.17;;;13.57;;
12511;SDS011;6321;53.798;10.382;2023-03-23T01:37:16;18.80;;;13.60;;
12511;SDS011;6321;53.798;10.382;2023-03-23T01:39:42;16.63;;;13.50;;
12511;SDS011;6321;53.798;10.382;2023-03-23T01:42:09;17.37;;;12.63;;
12511;SDS011;6321;53.798;10.382;2023-03-23T01:47:01;16.93;;;12.37;;
12511;SDS011;6321;53.798;10.382;2023-03-23T01:49:37;16.93;;;13.60;;
12511;SDS011;6321;53.798;10.382;2023-03-23T01:52:05;16.67;;;12.77;;
12511;SDS011;6321;53.798;10.382;2023-03-23T01:54:31;17.97;;;14.07;;
12511;SDS011;6321;53.798;10.382;2023-03-23T01:57:02;16.67;;;13.00;;
12511;SDS011;6321;53.798;10.382;2023-03-23T01:59:29;16.83;;;13.07;;
12511;SDS011;6321;53.798;10.382;2023-03-23T02:01:56;19.60;;;13.87;;
12511;SDS011;6321;53.798;10.382;2023-03-23T02:04:22;18.33;;;13.90;;
12511;SDS011;6321;53.798;10.382;2023-03-23T02:06:49;16.87;;;13.50;;
12511;SDS011;6321;53.798;10.382;2023-03-23T02:09:15;17.57;;;13.33;;
12511;SDS011;6321;53.798;10.382;2023-03-23T02:11:47;16.40;;;13.50;;
12511;SDS011;6321;53.798;10.382;2023-03-23T02:14:15;17.10;;;13.60;;
12511;SDS011;6321;53.798;10.382;2023-03-23T02:16:45;15.67;;;13.67;;
12511;SDS011;6321;53.798;10.382;2023-03-23T02:24:46;19.10;;;13.87;;
12511;SDS011;6321;53.798;10.382;2023-03-23T02:27:21;16.73;;;14.20;;
12511;SDS011;6321;53.798;10.382;2023-03-23T02:30:04;16.03;;;13.00;;
12511;SDS011;6321;53.798;10.382;2023-03-23T02:35:12;16.90;;;13.10;;
12511;SDS011;6321;53.798;10.382;2023-03-23T02:37:46;15.93;;;12.63;;
12511;SDS011;6321;53.798;10.382;2023-03-23T02:40:15;16.03;;;13.50;;
12511;SDS011;6321;53.798;10.382;2023-03-23T02:42:43;19.63;;;13.67;;
12511;SDS011;6321;53.798;10.382;2023-03-23T02:45:11;16.80;;;13.93;;
12511;SDS011;6321;53.798;10.382;2023-03-23T02:47:38;15.90;;;13.03;;
12511;SDS011;6321;53.798;10.382;2023-03-23T02:50:06;15.60;;;12.83;;
12511;SDS011;6321;53.798;10.382;2023-03-23T02:52:33;15.40;;;12.37;;
12511;SDS011;6321;53.798;10.382;2023-03-23T02:55:00;16.00;;;12.87;;
12511;SDS011;6321;53.798;10.382;2023-03-23T02:57:27;16.70;;;13.03;;
12511;SDS011;6321;53.798;10.382;2023-03-23T02:59:53;17.67;;;12.53;;
12511;SDS011;6321;53.798;10.382;2023-03-23T03:02:35;17.17;;;13.97;;
12511;SDS011;6321;53.798;10.382;2023-03-23T03:12:34;18.33;;;15.70;;
12511;SDS011;6321;53.798;10.382;2023-03-23T03:15:10;17.87;;;14.10;;
12511;SDS011;6321;53.798;10.382;2023-03-23T03:17:41;18.67;;;15.73;;
12511;SDS011;6321;53.798;10.382;2023-03-23T03:20:08;17.33;;;15.40;;
12511;SDS011;6321;53.798;10.382;2023-03-23T03:22:39;16.87;;;15.07;;
12511;SDS011;6321;53.798;10.382;2023-03-23T03:25:10;18.20;;;15.97;;
12511;SDS011;6321;53.798;10.382;2023-03-23T03:27:40;18.17;;;14.67;;
12511;SDS011;6321;53.798;10.382;2023-03-23T03:30:08;18.80;;;15.23;;
12511;SDS011;6321;53.798;10.382;2023-03-23T03:32:36;17.20;;;14.53;;
12511;SDS011;6321;53.798;10.382;2023-03-23T03:35:05;18.07;;;15.73;;
12511;SDS011;6321;53.798;10.382;2023-03-23T03:37:34;18.43;;;15.90;;
12511;SDS011;6321;53.798;10.382;2023-03-23T03:40:06;16.70;;;14.83;;
12511;SDS011;6321;53.798;10.382;2023-03-23T03:42:39;21.87;;;16.73;;
12511;SDS011;6321;53.798;10.382;2023-03-23T03:45:06;18.20;;;15.50;;
12511;SDS011;6321;53.798;10.382;2023-03-23T03:47:32;17.70;;;15.57;;
12511;SDS011;6321;53.798;10.382;2023-03-23T03:49:58;19.07;;;16.17;;
12511;SDS011;6321;53.798;10.382;2023-03-23T03:52:24;18.17;;;14.90;;
12511;SDS011;6321;53.798;10.382;2023-03-23T03:54:52;18.47;;;16.27;;
12511;SDS011;6321;53.798;10.382;2023-03-23T03:57:18;17.60;;;15.70;;
12511;SDS011;6321;53.798;10.382;2023-03-23T03:59:44;18.13;;;15.60;;
12511;SDS011;6321;53.798;10.382;2023-03-23T04:02:10;18.43;;;15.43;;
12511;SDS011;6321;53.798;10.382;2023-03-23T04:04:39;19.30;;;16.30;;
12511;SDS011;6321;53.798;10.382;2023-03-23T04:07:06;20.40;;;16.17;;
12511;SDS011;6321;53.798;10.382;2023-03-23T04:09:32;19.83;;;15.73;;
12511;SDS011;6321;53.798;10.382;2023-03-23T04:11:58;18.17;;;15.93;;
12511;SDS011;6321;53.798;10.382;2023-03-23T04:14:24;17.77;;;15.73;;
12511;SDS011;6321;53.798;10.382;2023-03-23T04:16:50;17.43;;;14.50;;
12511;SDS011;6321;53.798;10.382;2023-03-23T04:19:21;17.10;;;15.07;;
12511;SDS011;6321;53.798;10.382;2023-03-23T04:21:47;20.23;;;14.37;;
12511;SDS011;6321;53.798;10.382;2023-03-23T04:24:14;18.90;;;15.17;;
12511;SDS011;6321;53.798;10.382;2023-03-23T04:26:40;18.90;;;15.40;;
12511;SDS011;6321;53.798;10.382;2023-03-23T04:29:07;19.30;;;16.07;;
12511;SDS011;6321;53.798;10.382;2023-03-23T04:31:34;19.47;;;16.57;;
12511;SDS011;6321;53.798;10.382;2023-03-23T04:34:00;18.30;;;16.40;;
12511;SDS011;6321;53.798;10.382;2023-03-23T04:36:27;20.33;;;16.20;;
12511;SDS011;6321;53.798;10.382;2023-03-23T04:38:58;18.63;;;15.47;;
12511;SDS011;6321;53.798;10.382;2023-03-23T04:41:25;23.20;;;16.77;;
12511;SDS011;6321;53.798;10.382;2023-03-23T04:43:51;17.90;;;15.83;;
12511;SDS011;6321;53.798;10.382;2023-03-23T04:46:21;19.00;;;16.87;;
12511;SDS011;6321;53.798;10.382;2023-03-23T04:48:47;22.47;;;18.07;;
12511;SDS011;6321;53.798;10.382;2023-03-23T04:51:13;19.57;;;17.17;;
12511;SDS011;6321;53.798;10.382;2023-03-23T04:53:39;18.67;;;16.60;;
12511;SDS011;6321;53.798;10.382;2023-03-23T04:56:06;19.20;;;16.93;;
12511;SDS011;6321;53.798;10.382;2023-03-23T04:58:31;22.40;;;17.43;;
12511;SDS011;6321;53.798;10.382;2023-03-23T05:00:58;21.53;;;17.27;;
12511;SDS011;6321;53.798;10.382;2023-03-23T05:03:24;19.10;;;17.10;;
12511;SDS011;6321;53.798;10.382;2023-03-23T05:05:51;19.17;;;16.80;;
12511;SDS011;6321;53.798;10.382;2023-03-23T05:08:19;19.73;;;17.17;;
12511;SDS011;6321;53.798;10.382;2023-03-23T05:10:51;20.83;;;17.47;;
12511;SDS011;6321;53.798;10.382;2023-03-23T05:13:18;18.70;;;16.80;;
12511;SDS011;6321;53.798;10.382;2023-03-23T05:15:44;21.30;;;18.47;;
12511;SDS011;6321;53.798;10.382;2023-03-23T05:18:10;22.90;;;18.83;;
12511;SDS011;6321;53.798;10.382;2023-03-23T05:20:36;21.03;;;18.03;;
12511;SDS011;6321;53.798;10.382;2023-03-23T05:23:02;21.30;;;18.20;;
12511;SDS011;6321;53.798;10.382;2023-03-23T05:25:28;21.80;;;19.20;;
12511;SDS011;6321;53.798;10.382;2023-03-23T05:27:54;24.93;;;18.37;;
12511;SDS011;6321;53.798;10.382;2023-03-23T05:30:20;20.23;;;18.00;;
12511;SDS011;6321;53.798;10.382;2023-03-23T05:32:47;23.80;;;19.80;;
12511;SDS011;6321;53.798;10.382;2023-03-23T05:35:15;20.60;;;18.07;;
12511;SDS011;6321;53.798;10.382;2023-03-23T05:37:42;21.30;;;19.03;;
12511;SDS011;6321;53.798;10.382;2023-03-23T05:40:09;23.20;;;18.63;;
12511;SDS011;6321;53.798;10.382;2023-03-23T05:42:37;23.43;;;17.17;;
12511;SDS011;6321;53.798;10.382;2023-03-23T05:45:04;20.63;;;17.30;;
12511;SDS011;6321;53.798;10.382;2023-03-23T05:47:31;20.73;;;17.20;;
12511;SDS011;6321;53.798;10.382;2023-03-23T05:49:57;21.10;;;17.50;;
12511;SDS011;6321;53.798;10.382;2023-03-23T05:52:23;21.27;;;17.20;;
12511;SDS011;6321;53.798;10.382;2023-03-23T05:54:49;20.63;;;18.03;;
12511;SDS011;6321;53.798;10.382;2023-03-23T05:57:15;19.43;;;16.20;;
12511;SDS011;6321;53.798;10.382;2023-03-23T05:59:41;22.07;;;16.57;;
12511;SDS011;6321;53.798;10.382;2023-03-23T06:02:07;18.13;;;16.20;;
12511;SDS011;6321;53.798;10.382;2023-03-23T06:04:34;18.87;;;16.80;;
12511;SDS011;6321;53.798;10.382;2023-03-23T06:07:02;19.10;;;17.07;;
12511;SDS011;6321;53.798;10.382;2023-03-23T06:09:28;18.57;;;16.57;;
12511;SDS011;6321;53.798;10.382;2023-03-23T06:11:55;18.13;;;16.23;;
12511;SDS011;6321;53.798;10.382;2023-03-23T06:14:21;19.93;;;17.10;;
12511;SDS011;6321;53.798;10.382;2023-03-23T06:16:48;18.23;;;16.33;;
12511;SDS011;6321;53.798;10.382;2023-03-23T06:19:14;21.20;;;16.90;;
12511;SDS011;6321;53.798;10.382;2023-03-23T06:21:40;19.03;;;16.87;;
12511;SDS011;6321;53.798;10.382;2023-03-23T06:24:06;19.20;;;16.17;;
12511;SDS011;6321;53.798;10.382;2023-03-23T06:26:33;18.83;;;16.73;;
12511;SDS011;6321;53.798;10.382;2023-03-23T06:29:00;19.53;;;16.23;;
12511;SDS011;6321;53.798;10.382;2023-03-23T06:31:26;17.43;;;15.00;;
12511;SDS011;6321;53.798;10.382;2023-03-23T06:33:52;17.67;;;15.77;;
12511;SDS011;6321;53.798;10.382;2023-03-23T06:36:19;19.07;;;15.87;;
12511;SDS011;6321;53.798;10.382;2023-03-23T06:38:45;17.47;;;15.63;;
12511;SDS011;6321;53.798;10.382;2023-03-23T06:41:11;17.33;;;15.47;;
12511;SDS011;6321;53.798;10.382;2023-03-23T06:43:37;16.83;;;15.03;;
12511;SDS011;6321;53.798;10.382;2023-03-23T06:46:04;14.43;;;12.80;;
12511;SDS011;6321;53.798;10.382;2023-03-23T06:48:30;16.40;;;12.27;;
12511;SDS011;6321;53.798;10.382;2023-03-23T06:50:57;15.70;;;12.83;;
12511;SDS011;6321;53.798;10.382;2023-03-23T06:53:23;14.97;;;11.03;;
12511;SDS011;6321;53.798;10.382;2023-03-23T06:55:49;15.20;;;10.60;;
12511;SDS011;6321;53.798;10.382;2023-03-23T06:58:15;13.10;;;10.03;;
12511;SDS011;6321;53.798;10.382;2023-03-23T07:00:41;11.87;;;10.50;;
12511;SDS011;6321;53.798;10.382;2023-03-23T07:03:07;13.23;;;11.20;;
12511;SDS011;6321;53.798;10.382;2023-03-23T07:05:33;15.13;;;10.47;;
12511;SDS011;6321;53.798;10.382;2023-03-23T07:08:00;15.63;;;11.10;;
12511;SDS011;6321;53.798;10.382;2023-03-23T07:10:26;11.40;;;10.20;;
12511;SDS011;6321;53.798;10.382;2023-03-23T07:12:52;13.00;;;9.50;;
12511;SDS011;6321;53.798;10.382;2023-03-23T07:15:18;8.17;;;7.27;;
12511;SDS011;6321;53.798;10.382;2023-03-23T07:17:44;9.67;;;7.80;;
12511;SDS011;6321;53.798;10.382;2023-03-23T07:20:10;7.50;;;6.70;;
12511;SDS011;6321;53.798;10.382;2023-03-23T07:22:36;10.53;;;7.53;;
12511;SDS011;6321;53.798;10.382;2023-03-23T07:25:03;7.80;;;6.27;;
12511;SDS011;6321;53.798;10.382;2023-03-23T07:27:29;7.97;;;6.17;;
12511;SDS011;6321;53.798;10.382;2023-03-23T07:29:55;8.03;;;6.33;;
12511;SDS011;6321;53.798;10.382;2023-03-23T07:32:23;6.80;;;6.10;;
12511;SDS011;6321;53.798;10.382;2023-03-23T07:34:49;9.67;;;6.67;;
12511;SDS011;6321;53.798;10.382;2023-03-23T07:37:15;6.13;;;5.37;;
12511;SDS011;6321;53.798;10.382;2023-03-23T07:39:42;6.97;;;5.90;;
12511;SDS011;6321;53.798;10.382;2023-03-23T07:42:08;7.47;;;5.10;;
12511;SDS011;6321;53.798;10.382;2023-03-23T07:44:34;6.97;;;5.53;;
12511;SDS011;6321;53.798;10.382;2023-03-23T07:47:00;7.63;;;5.23;;
12511;SDS011;6321;53.798;10.382;2023-03-23T07:49:26;7.53;;;5.77;;
12511;SDS011;6321;53.798;10.382;2023-03-23T07:51:52;6.37;;;4.93;;
12511;SDS011;6321;53.798;10.382;2023-03-23T07:54:18;7.30;;;5.53;;
12511;SDS011;6321;53.798;10.382;2023-03-23T07:56:44;6.57;;;5.67;;
12511;SDS011;6321;53.798;10.382;2023-03-23T07:59:10;11.27;;;5.87;;
12511;SDS011;6321;53.798;10.382;2023-03-23T08:01:37;8.37;;;5.73;;
12511;SDS011;6321;53.798;10.382;2023-03-23T08:04:03;7.70;;;5.30;;
12511;SDS011;6321;53.798;10.382;2023-03-23T08:06:31;6.77;;;5.17;;
12511;SDS011;6321;53.798;10.382;2023-03-23T08:08:58;7.60;;;5.13;;
12511;SDS011;6321;53.798;10.382;2023-03-23T08:11:24;7.50;;;5.43;;
12511;SDS011;6321;53.798;10.382;2023-03-23T08:13:50;6.93;;;5.27;;
12511;SDS011;6321;53.798;10.382;2023-03-23T08:16:17;5.50;;;4.97;;
12511;SDS011;6321;53.798;10.382;2023-03-23T08:18:44;5.63;;;4.10;;
12511;SDS011;6321;53.798;10.382;2023-03-23T08:21:10;4.80;;;3.83;;
12511;SDS011;6321;53.798;10.382;2023-03-23T08:23:37;6.37;;;4.50;;
12511;SDS011;6321;53.798;10.382;2023-03-23T08:26:03;7.57;;;5.10;;
12511;SDS011;6321;53.798;10.382;2023-03-23T08:28:31;7.37;;;4.57;;
12511;SDS011;6321;53.798;10.382;2023-03-23T08:30:57;6.93;;;4.23;;
12511;SDS011;6321;53.798;10.382;2023-03-23T08:33:23;3.83;;;2.80;;
12511;SDS011;6321;53.798;10.382;2023-03-23T08:35:56;5.80;;;2.67;;
12511;SDS011;6321;53.798;10.382;2023-03-23T08:38:22;4.00;;;2.47;;
12511;SDS011;6321;53.798;10.382;2023-03-23T08:40:49;4.93;;;1.90;;
12511;SDS011;6321;53.798;10.382;2023-03-23T08:43:15;4.83;;;2.00;;
12511;SDS011;6321;53.798;10.382;2023-03-23T08:45:41;5.50;;;2.23;;
12511;SDS011;6321;53.798;10.382;2023-03-23T08:48:07;5.23;;;1.63;;
12511;SDS011;6321;53.798;10.382;2023-03-23T08:50:34;3.93;;;1.60;;
12511;SDS011;6321;53.798;10.382;2023-03-23T08:53:00;2.10;;;1.50;;
12511;SDS011;6321;53.798;10.382;2023-03-23T08:55:26;2.23;;;1.40;;
12511;SDS011;6321;53.798;10.382;2023-03-23T08:57:52;3.73;;;1.40;;
12511;SDS011;6321;53.798;10.382;2023-03-23T09:00:19;1.83;;;1.20;;
12511;SDS011;6321;53.798;10.382;2023-03-23T09:02:47;2.97;;;1.30;;
12511;SDS011;6321;53.798;10.382;2023-03-23T09:05:14;1.57;;;1.27;;
12511;SDS011;6321;53.798;10.382;2023-03-23T09:07:41;2.33;;;1.30;;
12511;SDS011;6321;53.798;10.382;2023-03-23T09:10:07;2.80;;;1.30;;
12511;SDS011;6321;53.798;10.382;2023-03-23T09:12:34;4.10;;;1.57;;
12511;SDS011;6321;53.798;10.382;2023-03-23T09:15:01;1.67;;;1.47;;
12511;SDS011;6321;53.798;10.382;2023-03-23T09:17:28;5.43;;;1.90;;
12511;SDS011;6321;53.798;10.382;2023-03-23T09:19:54;2.67;;;1.50;;
12511;SDS011;6321;53.798;10.382;2023-03-23T09:22:20;4.40;;;1.50;;
12511;SDS011;6321;53.798;10.382;2023-03-23T09:24:48;4.07;;;1.57;;
12511;SDS011;6321;53.798;10.382;2023-03-23T09:27:15;4.00;;;2.07;;
12511;SDS011;6321;53.798;10.382;2023-03-23T09:29:41;2.80;;;1.50;;
12511;SDS011;6321;53.798;10.382;2023-03-23T09:32:09;3.43;;;1.70;;
12511;SDS011;6321;53.798;10.382;2023-03-23T09:34:35;5.60;;;1.90;;
12511;SDS011;6321;53.798;10.382;2023-03-23T09:37:04;3.27;;;1.70;;
12511;SDS011;6321;53.798;10.382;2023-03-23T09:39:31;4.90;;;1.90;;
12511;SDS011;6321;53.798;10.382;2023-03-23T09:44:42;6.17;;;2.20;;
12511;SDS011;6321;53.798;10.382;2023-03-23T09:49:41;5.60;;;2.37;;
12511;SDS011;6321;53.798;10.382;2023-03-23T09:54:37;6.63;;;2.47;;
12511;SDS011;6321;53.798;10.382;2023-03-23T09:57:05;4.93;;;2.83;;
12511;SDS011;6321;53.798;10.382;2023-03-23T09:59:40;8.10;;;2.67;;
12511;SDS011;6321;53.798;10.382;2023-03-23T10:02:17;5.97;;;2.50;;
12511;SDS011;6321;53.798;10.382;2023-03-23T10:04:45;7.03;;;2.43;;
12511;SDS011;6321;53.798;10.382;2023-03-23T10:07:13;8.23;;;3.50;;
12511;SDS011;6321;53.798;10.382;2023-03-23T10:09:40;5.43;;;2.53;;
12511;SDS011;6321;53.798;10.382;2023-03-23T10:12:12;4.33;;;2.37;;
12511;SDS011;6321;53.798;10.382;2023-03-23T10:14:52;8.77;;;2.60;;
12511;SDS011;6321;53.798;10.382;2023-03-23T10:20:29;8.37;;;2.97;;
12511;SDS011;6321;53.798;10.382;2023-03-23T10:25:34;9.40;;;2.93;;
12511;SDS011;6321;53.798;10.382;2023-03-23T10:28:11;8.60;;;3.23;;
12511;SDS011;6321;53.798;10.382;2023-03-23T10:30:38;8.13;;;3.50;;
12511;SDS011;6321;53.798;10.382;2023-03-23T10:36:00;9.07;;;2.50;;
12511;SDS011;6321;53.798;10.382;2023-03-23T10:38:33;5.13;;;2.20;;
12511;SDS011;6321;53.798;10.382;2023-03-23T10:41:03;7.63;;;3.33;;
12511;SDS011;6321;53.798;10.382;2023-03-23T10:43:30;8.03;;;2.30;;
12511;SDS011;6321;53.798;10.382;2023-03-23T10:45:59;6.87;;;2.67;;
12511;SDS011;6321;53.798;10.382;2023-03-23T10:50:54;6.57;;;2.47;;
12511;SDS011;6321;53.798;10.382;2023-03-23T10:53:21;7.60;;;2.47;;
12511;SDS011;6321;53.798;10.382;2023-03-23T10:55:49;4.10;;;2.00;;
12511;SDS011;6321;53.798;10.382;2023-03-23T10:58:26;4.93;;;2.20;;
12511;SDS011;6321;53.798;10.382;2023-03-23T11:00:56;9.47;;;2.60;;
12511;SDS011;6321;53.798;10.382;2023-03-23T11:03:24;7.57;;;2.20;;
12511;SDS011;6321;53.798;10.382;2023-03-23T11:05:59;8.57;;;2.43;;
12511;SDS011;6321;53.798;10.382;2023-03-23T11:08:26;6.77;;;2.27;;
12511;SDS011;6321;53.798;10.382;2023-03-23T11:10:57;7.87;;;2.47;;
12511;SDS011;6321;53.798;10.382;2023-03-23T11:13:27;4.73;;;2.50;;
12511;SDS011;6321;53.798;10.382;2023-03-23T11:15:53;9.53;;;3.17;;
12511;SDS011;6321;53.798;10.382;2023-03-23T11:18:42;7.30;;;2.73;;
12511;SDS011;6321;53.798;10.382;2023-03-23T11:21:07;9.70;;;2.40;;
12511;SDS011;6321;53.798;10.382;2023-03-23T11:23:34;8.63;;;2.83;;
12511;SDS011;6321;53.798;10.382;2023-03-23T11:26:08;5.77;;;2.77;;
12511;SDS011;6321;53.798;10.382;2023-03-23T11:28:41;8.73;;;2.50;;
12511;SDS011;6321;53.798;10.382;2023-03-23T11:31:08;7.40;;;2.63;;
12511;SDS011;6321;53.798;10.382;2023-03-23T11:33:36;11.47;;;2.87;;
12511;SDS011;6321;53.798;10.382;2023-03-23T11:36:03;6.77;;;2.37;;
12511;SDS011;6321;53.798;10.382;2023-03-23T11:38:31;11.90;;;3.00;;
12511;SDS011;6321;53.798;10.382;2023-03-23T11:40:58;10.53;;;2.67;;
12511;SDS011;6321;53.798;10.382;2023-03-23T11:43:24;6.70;;;2.13;;
12511;SDS011;6321;53.798;10.382;2023-03-23T11:48:38;9.70;;;2.57;;
12511;SDS011;6321;53.798;10.382;2023-03-23T11:51:08;9.90;;;2.53;;
12511;SDS011;6321;53.798;10.382;2023-03-23T11:53:50;5.43;;;2.20;;
12511;SDS011;6321;53.798;10.382;2023-03-23T11:56:23;7.07;;;2.30;;
12511;SDS011;6321;53.798;10.382;2023-03-23T11:58:55;15.67;;;3.13;;
12511;SDS011;6321;53.798;10.382;2023-03-23T12:01:32;12.33;;;2.83;;
12511;SDS011;6321;53.798;10.382;2023-03-23T12:06:34;9.30;;;2.93;;
12511;SDS011;6321;53.798;10.382;2023-03-23T12:11:45;12.63;;;3.00;;
12511;SDS011;6321;53.798;10.382;2023-03-23T12:14:36;9.27;;;3.30;;
12511;SDS011;6321;53.798;10.382;2023-03-23T12:17:07;9.33;;;2.93;;
12511;SDS011;6321;53.798;10.382;2023-03-23T12:22:19;5.47;;;2.33;;
12511;SDS011;6321;53.798;10.382;2023-03-23T12:27:25;6.40;;;2.80;;
12511;SDS011;6321;53.798;10.382;2023-03-23T12:29:59;8.27;;;2.37;;
12511;SDS011;6321;53.798;10.382;2023-03-23T12:32:31;9.60;;;2.93;;
12511;SDS011;6321;53.798;10.382;2023-03-23T12:35:05;10.47;;;3.13;;
12511;SDS011;6321;53.798;10.382;2023-03-23T12:37:39;10.77;;;3.10;;
12511;SDS011;6321;53.798;10.382;2023-03-23T12:40:12;11.83;;;3.47;;
12511;SDS011;6321;53.798;10.382;2023-03-23T12:42:58;7.77;;;3.13;;
12511;SDS011;6321;53.798;10.382;2023-03-23T12:45:37;14.73;;;3.30;;
12511;SDS011;6321;53.798;10.382;2023-03-23T12:48:12;14.00;;;3.13;;
12511;SDS011;6321;53.798;10.382;2023-03-23T12:50:40;8.70;;;2.50;;
12511;SDS011;6321;53.798;10.382;2023-03-23T12:55:43;11.43;;;3.13;;
12511;SDS011;6321;53.798;10.382;2023-03-23T12:58:20;7.67;;;2.70;;
12511;SDS011;6321;53.798;10.382;2023-03-23T13:06:15;11.87;;;2.87;;
12511;SDS011;6321;53.798;10.382;2023-03-23T13:11:34;10.47;;;2.80;;
12511;SDS011;6321;53.798;10.382;2023-03-23T13:14:03;11.40;;;3.67;;
12511;SDS011;6321;53.798;10.382;2023-03-23T13:16:47;10.10;;;3.10;;
12511;SDS011;6321;53.798;10.382;2023-03-23T13:21:56;7.77;;;3.30;;
12511;SDS011;6321;53.798;10.382;2023-03-23T13:24:25;10.63;;;3.13;;
12511;SDS011;6321;53.798;10.382;2023-03-23T13:26:52;8.13;;;3.37;;
12511;SDS011;6321;53.798;10.382;2023-03-23T13:29:22;10.40;;;3.23;;
12511;SDS011;6321;53.798;10.382;2023-03-23T13:31:52;8.13;;;3.23;;
12511;SDS011;6321;53.798;10.382;2023-03-23T13:34:30;8.93;;;3.47;;
12511;SDS011;6321;53.798;10.382;2023-03-23T13:36:58;9.67;;;4.07;;
12511;SDS011;6321;53.798;10.382;2023-03-23T13:39:25;10.60;;;3.90;;
12511;SDS011;6321;53.798;10.382;2023-03-23T13:42:03;10.83;;;4.17;;
12511;SDS011;6321;53.798;10.382;2023-03-23T13:47:26;10.03;;;4.07;;
12511;SDS011;6321;53.798;10.382;2023-03-23T13:49:54;9.37;;;3.83;;
12511;SDS011;6321;53.798;10.382;2023-03-23T13:54:50;9.70;;;3.90;;
12511;SDS011;6321;53.798;10.382;2023-03-23T13:57:33;12.53;;;4.57;;
12511;SDS011;6321;53.798;10.382;2023-03-23T14:00:10;12.00;;;4.10;;
12511;SDS011;6321;53.798;10.382;2023-03-23T14:02:38;7.97;;;3.80;;
12511;SDS011;6321;53.798;10.382;2023-03-23T14:05:28;7.50;;;3.77;;
12511;SDS011;6321;53.798;10.382;2023-03-23T14:07:56;10.57;;;4.17;;
12511;SDS011;6321;53.798;10.382;2023-03-23T14:10:25;8.30;;;3.57;;
12511;SDS011;6321;53.798;10.382;2023-03-23T14:12:52;7.80;;;3.57;;
12511;SDS011;6321;53.798;10.382;2023-03-23T14:15:19;5.03;;;2.63;;
12511;SDS011;6321;53.798;10.382;2023-03-23T14:17:45;2.73;;;2.00;;
12511;SDS011;6321;53.798;10.382;2023-03-23T14:20:33;3.03;;;1.73;;
12511;SDS011;6321;53.798;10.382;2023-03-23T14:22:58;3.00;;;1.60;;
12511;SDS011;6321;53.798;10.382;2023-03-23T14:25:29;4.17;;;1.63;;
12511;SDS011;6321;53.798;10.382;2023-03-23T14:27:57;1.97;;;1.20;;
12511;SDS011;6321;53.798;10.382;2023-03-23T14:30:24;3.43;;;1.30;;
12511;SDS011;6321;53.798;10.382;2023-03-23T14:32:53;1.87;;;1.30;;
12511;SDS011;6321;53.798;10.382;2023-03-23T14:35:34;5.13;;;1.33;;
12511;SDS011;6321;53.798;10.382;2023-03-23T14:38:01;1.70;;;1.20;;
12511;SDS011;6321;53.798;10.382;2023-03-23T14:40:27;1.20;;;1.10;;
12511;SDS011;6321;53.798;10.382;2023-03-23T14:42:53;2.70;;;1.10;;
12511;SDS011;6321;53.798;10.382;2023-03-23T14:45:21;2.50;;;1.23;;
12511;SDS011;6321;53.798;10.382;2023-03-23T14:47:51;2.57;;;1.23;;
12511;SDS011;6321;53.798;10.382;2023-03-23T14:50:36;3.13;;;1.50;;
12511;SDS011;6321;53.798;10.382;2023-03-23T14:53:07;3.50;;;1.50;;
12511;SDS011;6321;53.798;10.382;2023-03-23T14:55:35;2.73;;;1.53;;
12511;SDS011;6321;53.798;10.382;2023-03-23T14:58:07;2.23;;;1.40;;
12511;SDS011;6321;53.798;10.382;2023-03-23T15:00:35;5.33;;;1.30;;
12511;SDS011;6321;53.798;10.382;2023-03-23T15:03:03;1.77;;;1.27;;
12511;SDS011;6321;53.798;10.382;2023-03-23T15:05:31;2.07;;;1.47;;
12511;SDS011;6321;53.798;10.382;2023-03-23T15:08:01;2.90;;;1.60;;
12511;SDS011;6321;53.798;10.382;2023-03-23T15:10:28;4.60;;;2.13;;
12511;SDS011;6321;53.798;10.382;2023-03-23T15:12:55;3.80;;;1.90;;
12511;SDS011;6321;53.798;10.382;2023-03-23T15:15:29;4.13;;;1.77;;
12511;SDS011;6321;53.798;10.382;2023-03-23T15:17:56;3.47;;;1.93;;
12511;SDS011;6321;53.798;10.382;2023-03-23T15:20:23;2.53;;;1.53;;
12511;SDS011;6321;53.798;10.382;2023-03-23T15:22:49;3.37;;;1.77;;
12511;SDS011;6321;53.798;10.382;2023-03-23T15:27:49;2.20;;;1.40;;
12511;SDS011;6321;53.798;10.382;2023-03-23T15:30:27;3.90;;;1.83;;
12511;SDS011;6321;53.798;10.382;2023-03-23T15:33:14;4.67;;;1.90;;
12511;SDS011;6321;53.798;10.382;2023-03-23T15:35:41;3.90;;;1.53;;
12511;SDS011;6321;53.798;10.382;2023-03-23T15:38:26;6.00;;;2.07;;
12511;SDS011;6321;53.798;10.382;2023-03-23T15:40:55;4.77;;;2.00;;
12511;SDS011;6321;53.798;10.382;2023-03-23T15:43:24;6.63;;;1.93;;
12511;SDS011;6321;53.798;10.382;2023-03-23T15:45:52;2.80;;;1.83;;
12511;SDS011;6321;53.798;10.382;2023-03-23T15:48:20;4.83;;;1.90;;
12511;SDS011;6321;53.798;10.382;2023-03-23T15:50:46;5.50;;;1.90;;
12511;SDS011;6321;53.798;10.382;2023-03-23T15:53:22;3.03;;;2.07;;
12511;SDS011;6321;53.798;10.382;2023-03-23T15:55:49;4.13;;;2.10;;